createdAt,value
2023-02-17T00:01:14.994Z,15.70
2023-02-17T00:03:41.676Z,12.00
2023-02-17T00:06:09.109Z,13.30
2023-02-17T00:08:36.012Z,16.87
2023-02-17T00:11:02.849Z,15.90
2023-02-17T00:13:29.713Z,12.90
2023-02-17T00:15:56.286Z,14.67
2023-02-17T00:18:23.249Z,15.23
2023-02-17T00:20:50.245Z,14.80
2023-02-17T00:23:16.851Z,15.63
2023-02-17T00:25:43.754Z,13.60
2023-02-17T00:28:10.222Z,14.57
2023-02-17T00:30:37.595Z,15.40
2023-02-17T00:33:04.165Z,14.40
2023-02-17T00:35:30.643Z,13.40
2023-02-17T00:37:57.169Z,13.83
2023-02-17T00:40:23.691Z,15.27
2023-02-17T00:42:50.534Z,14.83
2023-02-17T00:45:17.906Z,12.40
2023-02-17T00:47:44.425Z,15.37
2023-02-17T00:50:11.198Z,14.33
2023-02-17T00:52:37.692Z,13.43
2023-02-17T00:55:04.532Z,11.87
2023-02-17T00:57:32.436Z,11.70
2023-02-17T00:59:59.183Z,12.17
2023-02-17T01:02:26.553Z,10.80
2023-02-17T01:04:53.470Z,11.67
2023-02-17T01:07:20.104Z,11.80
2023-02-17T01:09:46.826Z,12.30
2023-02-17T01:12:13.397Z,10.90
2023-02-17T01:14:39.914Z,12.87
2023-02-17T01:17:06.600Z,9.77
2023-02-17T01:19:33.093Z,12.53
2023-02-17T01:22:00.041Z,10.33
2023-02-17T01:24:26.964Z,9.73
2023-02-17T01:26:53.539Z,10.93
2023-02-17T01:29:20.060Z,12.03
2023-02-17T01:31:46.887Z,9.60
2023-02-17T01:34:13.416Z,12.47
2023-02-17T01:36:40.014Z,11.63
2023-02-17T01:39:06.647Z,13.60
2023-02-17T01:41:33.202Z,11.20
2023-02-17T01:44:14.269Z,12.17
2023-02-17T01:46:41.916Z,11.60
2023-02-17T01:49:31.826Z,12.77
2023-02-17T01:52:04.910Z,12.40
2023-02-17T01:54:35.199Z,12.87
2023-02-17T01:57:02.083Z,10.80
2023-02-17T01:59:30.167Z,12.60
2023-02-17T02:01:58.630Z,12.33
2023-02-17T02:04:27.998Z,10.97
2023-02-17T02:06:54.565Z,12.03
2023-02-17T02:09:31.257Z,11.27
2023-02-17T02:11:59.880Z,11.13
2023-02-17T02:14:31.071Z,11.83
2023-02-17T02:17:01.506Z,13.27
2023-02-17T02:19:46.709Z,13.37
2023-02-17T02:22:28.578Z,11.80
2023-02-17T02:25:02.336Z,12.03
2023-02-17T02:27:29.373Z,12.07
2023-02-17T02:30:14.917Z,11.00
2023-02-17T02:32:56.762Z,12.43
2023-02-17T02:35:45.949Z,11.60
2023-02-17T02:38:22.313Z,12.17
2023-02-17T02:40:52.688Z,10.63
2023-02-17T02:43:25.466Z,12.30
2023-02-17T02:45:52.531Z,12.70
2023-02-17T02:48:19.514Z,13.10
2023-02-17T02:50:46.304Z,12.43
2023-02-17T02:53:25.879Z,12.70
2023-02-17T02:55:55.821Z,12.23
2023-02-17T02:58:23.198Z,11.60
2023-02-17T03:01:01.002Z,12.00
2023-02-17T03:03:34.582Z,13.50
2023-02-17T03:06:08.276Z,13.20
2023-02-17T03:08:36.764Z,12.70
2023-02-17T03:11:03.954Z,13.70
2023-02-17T03:13:39.303Z,10.90
2023-02-17T03:16:08.280Z,10.87
2023-02-17T03:18:35.402Z,12.43
2023-02-17T03:21:08.535Z,12.30
2023-02-17T03:23:35.089Z,11.00
2023-02-17T03:26:01.670Z,12.40
2023-02-17T03:28:28.661Z,10.47
2023-02-17T03:30:57.041Z,12.20
2023-02-17T03:33:23.579Z,13.20
2023-02-17T03:35:52.043Z,12.57
2023-02-17T03:38:18.859Z,11.60
2023-02-17T03:40:45.401Z,11.47
2023-02-17T03:43:11.883Z,11.30
2023-02-17T03:45:38.614Z,10.00
2023-02-17T03:48:05.601Z,11.63
2023-02-17T03:50:32.171Z,11.30
2023-02-17T03:52:58.828Z,10.70
2023-02-17T03:55:25.444Z,10.13
2023-02-17T03:57:52.070Z,11.43
2023-02-17T04:00:18.838Z,11.90
2023-02-17T04:02:45.775Z,12.43
2023-02-17T04:05:12.382Z,12.50
2023-02-17T04:07:38.937Z,11.17
2023-02-17T04:10:08.375Z,11.93
2023-02-17T04:12:35.914Z,11.77
2023-02-17T04:15:02.460Z,10.10
2023-02-17T04:17:29.122Z,10.00
2023-02-17T04:19:55.804Z,9.70
2023-02-17T04:22:22.398Z,12.07
2023-02-17T04:24:49.111Z,11.70
2023-02-17T04:27:15.777Z,10.20
2023-02-17T04:29:42.310Z,12.77
2023-02-17T04:32:08.963Z,10.57
2023-02-17T04:34:35.534Z,12.53
2023-02-17T04:37:02.054Z,11.60
2023-02-17T04:39:28.569Z,11.90
2023-02-17T04:41:55.228Z,10.73
2023-02-17T04:44:21.855Z,11.97
2023-02-17T04:46:48.313Z,10.67
2023-02-17T04:49:14.822Z,11.00
2023-02-17T04:51:41.346Z,11.70
2023-02-17T04:54:07.931Z,8.73
2023-02-17T04:56:34.433Z,11.43
2023-02-17T04:59:00.965Z,11.10
2023-02-17T05:01:27.761Z,11.60
2023-02-17T05:03:54.259Z,11.80
2023-02-17T05:06:20.986Z,13.47
2023-02-17T05:08:48.257Z,11.40
2023-02-17T05:11:14.844Z,10.17
2023-02-17T05:13:41.444Z,10.90
2023-02-17T05:16:08.354Z,10.87
2023-02-17T05:18:35.157Z,11.90
2023-02-17T05:21:01.805Z,9.70
2023-02-17T05:23:28.511Z,10.87
2023-02-17T05:25:55.075Z,10.40
2023-02-17T05:28:21.652Z,10.40
2023-02-17T05:30:49.327Z,10.10
2023-02-17T05:33:16.189Z,9.70
2023-02-17T05:35:42.808Z,8.20
2023-02-17T05:38:09.372Z,10.13
2023-02-17T05:40:36.002Z,9.50
2023-02-17T05:43:02.547Z,10.20
2023-02-17T05:45:29.192Z,9.10
2023-02-17T05:47:55.807Z,9.10
2023-02-17T05:50:22.571Z,10.13
2023-02-17T05:52:49.134Z,9.63
2023-02-17T05:55:15.835Z,9.40
2023-02-17T05:57:42.374Z,9.17
2023-02-17T06:00:09.453Z,9.20
2023-02-17T06:02:41.651Z,8.87
2023-02-17T06:05:08.648Z,8.60
2023-02-17T06:07:35.242Z,9.70
2023-02-17T06:10:01.838Z,9.50
2023-02-17T06:12:28.505Z,8.67
2023-02-17T06:14:55.080Z,8.80
2023-02-17T06:17:21.804Z,9.23
2023-02-17T06:19:48.533Z,9.43
2023-02-17T06:22:17.242Z,10.40
2023-02-17T06:24:45.116Z,10.40
2023-02-17T06:27:11.635Z,8.07
2023-02-17T06:29:38.160Z,9.73
2023-02-17T06:32:05.107Z,9.73
2023-02-17T06:34:31.776Z,8.50
2023-02-17T06:36:58.466Z,10.30
2023-02-17T06:39:25.062Z,10.70
2023-02-17T06:41:51.636Z,8.90
2023-02-17T06:44:18.175Z,8.67
2023-02-17T06:46:46.886Z,9.20
2023-02-17T06:49:14.251Z,8.67
2023-02-17T06:51:40.881Z,8.80
2023-02-17T06:54:09.054Z,7.70
2023-02-17T06:56:36.510Z,9.37
2023-02-17T06:59:03.544Z,9.97
2023-02-17T07:01:30.307Z,9.20
2023-02-17T07:03:57.121Z,10.23
2023-02-17T07:06:24.187Z,11.30
2023-02-17T07:08:50.983Z,11.40
2023-02-17T07:11:17.589Z,10.77
2023-02-17T07:13:44.340Z,10.33
2023-02-17T07:16:11.837Z,8.90
2023-02-17T07:18:38.497Z,9.37
2023-02-17T07:21:05.796Z,11.63
2023-02-17T07:23:32.391Z,9.83
2023-02-17T07:26:03.309Z,10.87
2023-02-17T07:28:30.042Z,8.23
2023-02-17T07:30:56.578Z,10.60
2023-02-17T07:33:23.072Z,12.87
2023-02-17T07:35:49.667Z,10.73
2023-02-17T07:38:16.198Z,11.83
2023-02-17T07:40:43.888Z,9.83
2023-02-17T07:43:10.574Z,11.47
2023-02-17T07:45:37.119Z,10.37
2023-02-17T07:48:03.817Z,11.27
2023-02-17T07:50:30.446Z,10.20
2023-02-17T07:52:56.998Z,9.60
2023-02-17T07:55:24.398Z,9.93
2023-02-17T07:57:50.949Z,9.33
2023-02-17T08:00:17.714Z,10.30
2023-02-17T08:02:44.381Z,9.67
2023-02-17T08:05:10.971Z,10.00
2023-02-17T08:07:37.550Z,9.70
2023-02-17T08:10:23.266Z,9.90
2023-02-17T08:13:08.561Z,7.50
2023-02-17T08:15:35.669Z,10.40
2023-02-17T08:18:04.877Z,9.43
2023-02-17T08:20:32.634Z,8.67
2023-02-17T08:23:01.171Z,9.10
2023-02-17T08:25:27.756Z,8.53
2023-02-17T08:27:55.181Z,9.10
2023-02-17T08:30:21.898Z,8.47
2023-02-17T08:32:48.771Z,8.50
2023-02-17T08:35:15.524Z,8.53
2023-02-17T08:37:42.146Z,8.30
2023-02-17T08:40:09.091Z,7.50
2023-02-17T08:42:35.735Z,7.93
2023-02-17T08:45:03.515Z,6.40
2023-02-17T08:47:30.158Z,5.00
2023-02-17T08:49:56.629Z,7.80
2023-02-17T08:52:23.168Z,5.93
2023-02-17T08:54:51.649Z,8.03
2023-02-17T08:57:19.210Z,8.30
2023-02-17T08:59:48.069Z,6.70
2023-02-17T09:02:15.721Z,6.33
2023-02-17T09:04:43.605Z,6.50
2023-02-17T09:07:12.073Z,7.67
2023-02-17T09:09:38.691Z,5.13
2023-02-17T09:12:05.757Z,6.90
2023-02-17T09:14:32.341Z,6.10
2023-02-17T09:16:59.365Z,6.10
2023-02-17T09:19:26.472Z,5.83
2023-02-17T09:21:53.085Z,6.57
2023-02-17T09:24:19.704Z,6.20
2023-02-17T09:26:46.306Z,7.13
2023-02-17T09:29:12.864Z,5.23
2023-02-17T09:31:39.726Z,6.50
2023-02-17T09:34:06.477Z,6.60
2023-02-17T09:36:37.178Z,5.13
2023-02-17T09:39:03.898Z,5.60
2023-02-17T09:41:37.978Z,5.40
2023-02-17T09:44:16.449Z,5.30
2023-02-17T09:47:00.498Z,5.70
2023-02-17T09:49:29.268Z,4.33
2023-02-17T09:52:00.212Z,4.93
2023-02-17T09:54:34.673Z,6.20
2023-02-17T09:57:02.879Z,6.00
2023-02-17T09:59:32.577Z,4.47
2023-02-17T10:01:59.996Z,4.50
2023-02-17T10:04:29.411Z,4.60
2023-02-17T10:07:01.740Z,4.97
2023-02-17T10:09:28.492Z,4.33
2023-02-17T10:11:59.821Z,4.57
2023-02-17T10:14:41.540Z,4.67
2023-02-17T10:17:15.354Z,4.17
2023-02-17T10:19:50.334Z,4.83
2023-02-17T10:22:21.637Z,5.80
2023-02-17T10:24:48.285Z,5.27
2023-02-17T10:27:28.780Z,6.87
2023-02-17T10:29:56.864Z,4.20
2023-02-17T10:32:24.821Z,3.97
2023-02-17T10:35:13.055Z,4.83
2023-02-17T10:37:48.630Z,5.07
2023-02-17T10:40:22.578Z,4.63
2023-02-17T10:42:50.903Z,4.37
2023-02-17T10:45:17.871Z,4.13
2023-02-17T10:47:44.433Z,3.40
2023-02-17T10:50:22.456Z,3.30
2023-02-17T10:52:49.438Z,4.50
2023-02-17T10:55:37.649Z,4.17
2023-02-17T10:58:12.791Z,3.97
2023-02-17T11:00:41.458Z,3.50
2023-02-17T11:03:18.446Z,2.97
2023-02-17T11:05:52.188Z,3.87
2023-02-17T11:08:25.809Z,3.43
2023-02-17T11:11:18.839Z,2.87
2023-02-17T11:14:05.868Z,4.00
2023-02-17T11:16:40.060Z,3.57
2023-02-17T11:19:07.702Z,4.27
2023-02-17T11:21:34.588Z,3.53
2023-02-17T11:24:03.941Z,3.60
2023-02-17T11:26:32.933Z,3.90
2023-02-17T11:29:33.226Z,5.00
2023-02-17T11:32:01.840Z,4.20
2023-02-17T11:34:30.681Z,3.27
2023-02-17T11:37:28.034Z,3.67
2023-02-17T11:39:55.225Z,3.60
2023-02-17T11:42:29.205Z,4.60
2023-02-17T11:44:57.079Z,3.43
2023-02-17T11:47:52.986Z,2.60
2023-02-17T11:50:40.418Z,3.07
2023-02-17T11:53:15.655Z,4.63
2023-02-17T11:56:00.812Z,4.13
2023-02-17T11:58:27.390Z,3.60
2023-02-17T12:00:57.025Z,3.43
2023-02-17T12:03:36.923Z,3.20
2023-02-17T12:06:22.271Z,4.50
2023-02-17T12:08:55.570Z,3.70
2023-02-17T12:11:32.460Z,3.93
2023-02-17T12:14:16.301Z,3.90
2023-02-17T12:17:01.207Z,2.57
2023-02-17T12:19:40.360Z,3.47
2023-02-17T12:22:30.205Z,4.27
2023-02-17T12:25:20.914Z,3.90
2023-02-17T12:27:47.596Z,3.97
2023-02-17T12:30:26.640Z,3.80
2023-02-17T12:33:01.842Z,3.80
2023-02-17T12:35:34.411Z,2.90
2023-02-17T12:38:02.266Z,3.63
2023-02-17T12:40:50.857Z,3.33
2023-02-17T12:43:17.337Z,3.40
2023-02-17T12:45:45.630Z,2.37
2023-02-17T12:48:38.880Z,3.20
2023-02-17T12:51:08.497Z,3.43
2023-02-17T12:53:47.279Z,2.43
2023-02-17T12:56:26.563Z,2.10
2023-02-17T12:58:54.728Z,2.67
2023-02-17T13:01:22.026Z,2.27
2023-02-17T13:03:48.640Z,3.80
2023-02-17T13:06:17.869Z,4.50
2023-02-17T13:08:49.589Z,3.13
2023-02-17T13:11:27.141Z,3.30
2023-02-17T13:13:53.619Z,2.80
2023-02-17T13:16:20.268Z,2.80
2023-02-17T13:18:50.233Z,2.80
2023-02-17T13:21:17.328Z,2.60
2023-02-17T13:23:45.287Z,3.07
2023-02-17T13:26:22.646Z,3.23
2023-02-17T13:28:50.204Z,2.93
2023-02-17T13:31:18.400Z,2.63
2023-02-17T13:33:49.657Z,3.13
2023-02-17T13:36:18.090Z,2.90
2023-02-17T13:38:56.522Z,4.77
2023-02-17T13:41:23.365Z,2.80
2023-02-17T13:43:50.066Z,3.70
2023-02-17T13:46:20.348Z,2.57
2023-02-17T13:48:57.499Z,2.50
2023-02-17T13:51:25.689Z,2.90
2023-02-17T13:53:52.308Z,3.10
2023-02-17T13:56:29.150Z,3.23
2023-02-17T13:59:07.055Z,3.67
2023-02-17T14:01:36.261Z,3.00
2023-02-17T14:04:03.916Z,3.30
2023-02-17T14:06:32.604Z,3.00
2023-02-17T14:08:59.301Z,3.57
2023-02-17T14:11:27.094Z,4.43
2023-02-17T14:13:57.676Z,3.33
2023-02-17T14:16:37.998Z,5.20
2023-02-17T14:19:06.496Z,3.67
2023-02-17T14:21:33.487Z,3.17
2023-02-17T14:24:00.225Z,3.80
2023-02-17T14:26:28.737Z,3.50
2023-02-17T14:28:56.977Z,4.70
2023-02-17T14:31:24.310Z,3.63
2023-02-17T14:33:59.053Z,4.13
2023-02-17T14:36:29.943Z,4.40
2023-02-17T14:38:57.480Z,3.60
2023-02-17T14:41:24.412Z,3.63
2023-02-17T14:43:50.887Z,2.70
2023-02-17T14:46:19.761Z,2.97
2023-02-17T14:49:10.419Z,2.00
2023-02-17T14:51:37.680Z,3.07
2023-02-17T14:54:15.852Z,4.30
2023-02-17T14:57:09.120Z,2.33
2023-02-17T14:59:35.787Z,1.70
2023-02-17T15:02:02.589Z,2.83
2023-02-17T15:04:29.135Z,1.57
2023-02-17T15:06:55.866Z,1.50
2023-02-17T15:09:27.942Z,2.37
2023-02-17T15:11:55.805Z,1.90
2023-02-17T15:14:22.463Z,1.67
2023-02-17T15:16:49.087Z,1.70
2023-02-17T15:19:18.178Z,1.90
2023-02-17T15:21:47.452Z,1.57
2023-02-17T15:24:15.630Z,2.40
2023-02-17T15:26:42.570Z,1.93
2023-02-17T15:29:16.815Z,2.57
2023-02-17T15:31:43.845Z,1.67
2023-02-17T15:34:13.263Z,1.60
2023-02-17T15:36:40.186Z,2.30
2023-02-17T15:39:08.893Z,2.43
2023-02-17T15:41:35.549Z,2.07
2023-02-17T15:44:03.649Z,2.17
2023-02-17T15:46:31.438Z,2.60
2023-02-17T15:48:58.537Z,3.20
2023-02-17T15:51:25.426Z,2.23
2023-02-17T15:53:52.339Z,2.53
2023-02-17T15:56:21.268Z,2.67
2023-02-17T15:58:49.057Z,3.20
2023-02-17T16:01:24.914Z,3.23
2023-02-17T16:03:51.590Z,4.47
2023-02-17T16:06:18.359Z,4.50
2023-02-17T16:08:45.125Z,2.97
2023-02-17T16:11:16.086Z,8.10
2023-02-17T16:13:43.957Z,2.80
2023-02-17T16:16:15.742Z,2.77
2023-02-17T16:18:42.747Z,2.80
2023-02-17T16:21:12.873Z,3.30
2023-02-17T16:23:39.994Z,2.97
2023-02-17T16:26:14.266Z,3.77
2023-02-17T16:28:41.077Z,2.93
2023-02-17T16:31:09.651Z,3.17
2023-02-17T16:33:36.431Z,3.87
2023-02-17T16:36:03.209Z,3.03
2023-02-17T16:38:30.307Z,3.40
2023-02-17T16:40:56.891Z,3.50
2023-02-17T16:43:26.878Z,3.83
2023-02-17T16:45:55.353Z,3.67
2023-02-17T16:48:27.292Z,3.57
2023-02-17T16:50:54.073Z,3.90
2023-02-17T16:53:20.907Z,3.67
2023-02-17T16:55:47.511Z,3.97
2023-02-17T16:58:18.616Z,7.97
2023-02-17T17:00:45.995Z,3.70
2023-02-17T17:03:12.713Z,4.33
2023-02-17T17:05:39.605Z,8.60
2023-02-17T17:08:07.181Z,2.93
2023-02-17T17:10:34.036Z,3.83
2023-02-17T17:13:01.745Z,3.63
2023-02-17T17:15:29.828Z,3.90
2023-02-17T17:18:01.047Z,4.27
2023-02-17T17:20:32.167Z,5.40
2023-02-17T17:22:59.900Z,3.57
2023-02-17T17:25:28.162Z,3.77
2023-02-17T17:27:55.202Z,4.10
2023-02-17T17:30:23.466Z,3.77
2023-02-17T17:32:50.260Z,3.93
2023-02-17T17:35:16.997Z,3.77
2023-02-17T17:37:43.935Z,4.37
2023-02-17T17:40:21.221Z,4.47
2023-02-17T17:42:47.874Z,4.77
2023-02-17T17:45:14.678Z,4.37
2023-02-17T17:47:41.463Z,5.70
2023-02-17T17:50:13.243Z,4.60
2023-02-17T17:52:40.040Z,4.40
2023-02-17T17:55:06.838Z,4.13
2023-02-17T17:57:33.354Z,4.13
2023-02-17T17:59:59.929Z,4.80
2023-02-17T18:02:27.473Z,4.90
2023-02-17T18:04:54.405Z,5.93
2023-02-17T18:07:21.346Z,5.60
2023-02-17T18:09:48.088Z,5.90
2023-02-17T18:12:17.973Z,5.60
2023-02-17T18:14:45.003Z,6.50
2023-02-17T18:17:12.204Z,6.07
2023-02-17T18:19:39.470Z,6.47
2023-02-17T18:22:06.333Z,5.87
2023-02-17T18:24:33.120Z,5.77
2023-02-17T18:26:59.820Z,6.37
2023-02-17T18:29:27.682Z,8.27
2023-02-17T18:31:54.295Z,6.53
2023-02-17T18:34:20.949Z,6.93
2023-02-17T18:36:47.592Z,7.73
2023-02-17T18:39:14.233Z,8.70
2023-02-17T18:41:40.822Z,8.20
2023-02-17T18:44:07.775Z,9.20
2023-02-17T18:46:34.557Z,8.40
2023-02-17T18:49:01.197Z,9.13
2023-02-17T18:51:27.879Z,8.40
2023-02-17T18:53:55.685Z,8.10
2023-02-17T18:56:24.146Z,6.57
2023-02-17T18:58:52.037Z,8.03
2023-02-17T19:01:20.551Z,9.43
2023-02-17T19:03:47.445Z,7.60
2023-02-17T19:06:16.016Z,6.40
2023-02-17T19:08:43.471Z,9.20
2023-02-17T19:11:10.072Z,8.93
2023-02-17T19:13:36.712Z,7.20
2023-02-17T19:16:19.241Z,9.33
2023-02-17T19:18:46.360Z,10.30
2023-02-17T19:21:12.999Z,7.97
2023-02-17T19:23:40.764Z,8.03
2023-02-17T19:26:09.028Z,8.30
2023-02-17T19:28:36.251Z,8.13
2023-02-17T19:31:05.750Z,10.47
2023-02-17T19:33:32.448Z,8.77
2023-02-17T19:35:59.039Z,9.90
2023-02-17T19:38:26.144Z,8.60
2023-02-17T19:40:52.762Z,8.17
2023-02-17T19:43:19.477Z,9.40
2023-02-17T19:45:46.657Z,9.23
2023-02-17T19:48:13.235Z,7.40
2023-02-17T19:50:39.834Z,8.70
2023-02-17T19:53:06.508Z,9.73
2023-02-17T19:55:33.220Z,8.83
2023-02-17T19:58:00.364Z,8.70
2023-02-17T20:00:27.089Z,8.90
2023-02-17T20:02:53.782Z,8.20
2023-02-17T20:05:20.532Z,7.60
2023-02-17T20:07:47.139Z,8.90
2023-02-17T20:10:13.918Z,9.07
2023-02-17T20:12:40.618Z,7.83
2023-02-17T20:15:07.890Z,8.40
2023-02-17T20:17:34.616Z,8.10
2023-02-17T20:20:01.212Z,8.23
2023-02-17T20:22:28.001Z,9.53
2023-02-17T20:24:54.583Z,7.87
2023-02-17T20:27:21.656Z,9.23
2023-02-17T20:29:48.360Z,8.80
2023-02-17T20:32:15.136Z,9.50
2023-02-17T20:34:42.016Z,7.70
2023-02-17T20:37:08.797Z,9.37
2023-02-17T20:39:36.149Z,7.90
2023-02-17T20:42:03.871Z,9.50
2023-02-17T20:44:30.746Z,8.27
2023-02-17T20:46:57.768Z,9.97
2023-02-17T20:49:25.303Z,7.90
2023-02-17T20:51:52.239Z,8.70
2023-02-17T20:54:18.957Z,9.27
2023-02-17T20:56:46.421Z,9.97
2023-02-17T20:59:13.363Z,8.10
2023-02-17T21:01:40.731Z,9.17
2023-02-17T21:04:07.919Z,9.03
2023-02-17T21:06:36.788Z,10.43
2023-02-17T21:09:05.380Z,8.40
2023-02-17T21:11:33.113Z,8.93
2023-02-17T21:13:59.804Z,8.33
2023-02-17T21:16:27.704Z,8.80
2023-02-17T21:18:54.927Z,8.73
2023-02-17T21:21:21.742Z,9.57
2023-02-17T21:23:48.401Z,9.47
2023-02-17T21:26:15.415Z,8.40
2023-02-17T21:28:43.311Z,9.80
2023-02-17T21:31:10.732Z,9.50
2023-02-17T21:33:42.109Z,9.03
2023-02-17T21:36:09.905Z,8.80
2023-02-17T21:38:40.412Z,9.60
2023-02-17T21:41:11.490Z,9.33
2023-02-17T21:43:56.904Z,8.70
2023-02-17T21:46:23.674Z,11.00
2023-02-17T21:48:51.976Z,9.87
2023-02-17T21:51:19.402Z,8.83
2023-02-17T21:53:46.192Z,9.50
2023-02-17T21:56:12.986Z,9.07
2023-02-17T21:58:39.527Z,9.70
2023-02-17T22:01:06.694Z,9.20
2023-02-17T22:03:33.299Z,11.37
2023-02-17T22:05:59.838Z,10.27
2023-02-17T22:08:26.392Z,9.70
2023-02-17T22:10:53.068Z,9.57
2023-02-17T22:13:19.579Z,10.60
2023-02-17T22:15:46.033Z,10.90
2023-02-17T22:18:12.621Z,11.00
2023-02-17T22:20:42.730Z,10.67
2023-02-17T22:23:09.193Z,10.10
2023-02-17T22:25:35.785Z,12.47
2023-02-17T22:28:02.271Z,11.80
2023-02-17T22:30:28.781Z,13.40
2023-02-17T22:32:55.645Z,10.70
2023-02-17T22:35:22.241Z,13.23
2023-02-17T22:37:48.815Z,13.20
2023-02-17T22:40:15.416Z,13.33
2023-02-17T22:42:41.949Z,14.17
2023-02-17T22:45:08.511Z,14.90
2023-02-17T22:47:35.355Z,16.70
2023-02-17T22:50:02.086Z,14.40
2023-02-17T22:52:30.114Z,17.40
2023-02-17T22:54:56.750Z,14.87
2023-02-17T22:57:23.229Z,15.07
2023-02-17T22:59:49.733Z,14.57
2023-02-17T23:02:16.290Z,17.17
2023-02-17T23:04:43.099Z,16.93
2023-02-17T23:07:09.757Z,14.97
2023-02-17T23:09:36.277Z,15.33
2023-02-17T23:12:03.351Z,17.60
2023-02-17T23:14:34.280Z,17.00
2023-02-17T23:17:02.401Z,15.87
2023-02-17T23:19:29.424Z,16.67
2023-02-17T23:21:58.109Z,15.43
2023-02-17T23:24:25.951Z,17.27
2023-02-17T23:26:53.095Z,15.60
2023-02-17T23:29:19.913Z,14.83
2023-02-17T23:31:46.641Z,17.10
2023-02-17T23:34:14.305Z,18.80
2023-02-17T23:36:41.638Z,13.60
2023-02-17T23:39:08.676Z,13.50
2023-02-17T23:41:36.084Z,17.37
2023-02-17T23:44:02.783Z,19.10
2023-02-17T23:46:29.637Z,15.30
2023-02-17T23:48:56.320Z,18.13
2023-02-17T23:51:22.837Z,19.10
2023-02-17T23:53:49.513Z,17.87
2023-02-17T23:56:24.098Z,14.70
2023-02-17T23:58:50.669Z,15.73
